sensor_id;sensor_type;location;lat;lon;timestamp;temperature;humidity
16732;DHT22;8484;50.904;9.192;2023-02-15T00:01:30;0.40;99.90
16732;DHT22;8484;50.904;9.192;2023-02-15T00:03:57;0.40;99.90
16732;DHT22;8484;50.904;9.192;2023-02-15T00:06:24;0.40;99.90
16732;DHT22;8484;50.904;9.192;2023-02-15T00:08:56;0.40;99.90
16732;DHT22;8484;50.904;9.192;2023-02-15T00:11:23;0.40;99.90
16732;DHT22;8484;50.904;9.192;2023-02-15T00:14:04;0.30;99.90
16732;DHT22;8484;50.904;9.192;2023-02-15T00:16:33;0.40;99.90
16732;DHT22;8484;50.904;9.192;2023-02-15T00:19:00;0.30;99.90
16732;DHT22;8484;50.904;9.192;2023-02-15T00:21:27;0.30;99.90
16732;DHT22;8484;50.904;9.192;2023-02-15T00:23:55;0.50;99.90
16732;DHT22;8484;50.904;9.192;2023-02-15T00:26:23;0.50;99.90
16732;DHT22;8484;50.904;9.192;2023-02-15T00:28:50;0.40;99.90
16732;DHT22;8484;50.904;9.192;2023-02-15T00:31:17;0.40;99.90
16732;DHT22;8484;50.904;9.192;2023-02-15T00:33:46;0.20;99.90
16732;DHT22;8484;50.904;9.192;2023-02-15T00:36:13;0.10;99.90
16732;DHT22;8484;50.904;9.192;2023-02-15T00:38:40;0.20;99.90
16732;DHT22;8484;50.904;9.192;2023-02-15T00:41:08;0.20;99.90
16732;DHT22;8484;50.904;9.192;2023-02-15T00:43:36;0.20;99.90
16732;DHT22;8484;50.904;9.192;2023-02-15T00:46:04;0.10;99.90
16732;DHT22;8484;50.904;9.192;2023-02-15T00:48:31;0.20;99.90
16732;DHT22;8484;50.904;9.192;2023-02-15T00:51:00;0.30;99.90
16732;DHT22;8484;50.904;9.192;2023-02-15T00:53:28;0.30;99.90
16732;DHT22;8484;50.904;9.192;2023-02-15T00:55:55;0.30;99.90
16732;DHT22;8484;50.904;9.192;2023-02-15T00:58:22;0.30;99.90
16732;DHT22;8484;50.904;9.192;2023-02-15T01:00:49;0.30;99.90
16732;DHT22;8484;50.904;9.192;2023-02-15T01:03:17;0.30;99.90
16732;DHT22;8484;50.904;9.192;2023-02-15T01:05:44;0.20;99.90
16732;DHT22;8484;50.904;9.192;2023-02-15T01:08:12;0.20;99.90
16732;DHT22;8484;50.904;9.192;2023-02-15T01:10:39;0.30;99.90
16732;DHT22;8484;50.904;9.192;2023-02-15T01:13:06;0.20;99.90
16732;DHT22;8484;50.904;9.192;2023-02-15T01:15:34;0.20;99.90
16732;DHT22;8484;50.904;9.192;2023-02-15T01:18:01;0.10;99.90
16732;DHT22;8484;50.904;9.192;2023-02-15T01:20:29;0.10;99.90
16732;DHT22;8484;50.904;9.192;2023-02-15T01:22:57;0.10;99.90
16732;DHT22;8484;50.904;9.192;2023-02-15T01:25:25;0.10;99.90
16732;DHT22;8484;50.904;9.192;2023-02-15T01:27:51;0.10;99.90
16732;DHT22;8484;50.904;9.192;2023-02-15T01:30:18;0.20;99.90
16732;DHT22;8484;50.904;9.192;2023-02-15T01:32:45;0.20;99.90
16732;DHT22;8484;50.904;9.192;2023-02-15T01:35:12;0.10;99.90
16732;DHT22;8484;50.904;9.192;2023-02-15T01:37:39;0.10;99.90
16732;DHT22;8484;50.904;9.192;2023-02-15T01:40:10;0.10;99.90
16732;DHT22;8484;50.904;9.192;2023-02-15T01:42:39;0.00;99.90
16732;DHT22;8484;50.904;9.192;2023-02-15T01:45:18;-0.30;99.90
16732;DHT22;8484;50.904;9.192;2023-02-15T01:47:49;-0.30;99.90
16732;DHT22;8484;50.904;9.192;2023-02-15T01:50:18;-0.30;99.90
16732;DHT22;8484;50.904;9.192;2023-02-15T01:52:51;-0.30;99.90
16732;DHT22;8484;50.904;9.192;2023-02-15T01:55:22;-0.30;99.90
16732;DHT22;8484;50.904;9.192;2023-02-15T01:57:51;-0.30;99.90
16732;DHT22;8484;50.904;9.192;2023-02-15T02:00:18;-0.30;99.90
16732;DHT22;8484;50.904;9.192;2023-02-15T02:02:50;-0.20;99.90
16732;DHT22;8484;50.904;9.192;2023-02-15T02:05:19;-0.20;99.90
16732;DHT22;8484;50.904;9.192;2023-02-15T02:07:46;-0.10;99.90
16732;DHT22;8484;50.904;9.192;2023-02-15T02:10:17;-0.10;99.90
16732;DHT22;8484;50.904;9.192;2023-02-15T02:12:46;-0.10;99.90
16732;DHT22;8484;50.904;9.192;2023-02-15T02:15:16;0.00;99.90
16732;DHT22;8484;50.904;9.192;2023-02-15T02:17:53;0.00;99.90
16732;DHT22;8484;50.904;9.192;2023-02-15T02:20:43;-0.10;99.90
16732;DHT22;8484;50.904;9.192;2023-02-15T02:23:23;-0.10;99.90
16732;DHT22;8484;50.904;9.192;2023-02-15T02:26:37;-0.10;99.90
16732;DHT22;8484;50.904;9.192;2023-02-15T02:29:33;-0.10;99.90
16732;DHT22;8484;50.904;9.192;2023-02-15T02:32:45;-0.10;99.90
16732;DHT22;8484;50.904;9.192;2023-02-15T02:35:17;-0.10;99.90
16732;DHT22;8484;50.904;9.192;2023-02-15T02:37:51;-0.40;99.90
16732;DHT22;8484;50.904;9.192;2023-02-15T02:40:28;-0.30;99.90
16732;DHT22;8484;50.904;9.192;2023-02-15T02:43:01;-0.20;99.90
16732;DHT22;8484;50.904;9.192;2023-02-15T02:45:38;-0.20;99.90
16732;DHT22;8484;50.904;9.192;2023-02-15T02:48:13;-0.10;99.90
16732;DHT22;8484;50.904;9.192;2023-02-15T02:50:41;-0.30;99.90
16732;DHT22;8484;50.904;9.192;2023-02-15T02:53:09;-0.20;99.90
16732;DHT22;8484;50.904;9.192;2023-02-15T02:55:40;-0.60;99.90
16732;DHT22;8484;50.904;9.192;2023-02-15T02:58:11;-0.60;99.90
16732;DHT22;8484;50.904;9.192;2023-02-15T03:00:43;-0.60;99.90
16732;DHT22;8484;50.904;9.192;2023-02-15T03:03:18;-0.30;99.90
16732;DHT22;8484;50.904;9.192;2023-02-15T03:05:50;-0.50;99.90
16732;DHT22;8484;50.904;9.192;2023-02-15T03:08:20;-0.60;99.90
16732;DHT22;8484;50.904;9.192;2023-02-15T03:10:53;-0.60;99.90
16732;DHT22;8484;50.904;9.192;2023-02-15T03:13:20;-0.70;99.90
16732;DHT22;8484;50.904;9.192;2023-02-15T03:15:49;-0.70;99.90
16732;DHT22;8484;50.904;9.192;2023-02-15T03:18:37;-0.60;99.90
16732;DHT22;8484;50.904;9.192;2023-02-15T03:21:07;-0.60;99.90
16732;DHT22;8484;50.904;9.192;2023-02-15T03:23:35;-0.50;99.90
16732;DHT22;8484;50.904;9.192;2023-02-15T03:26:05;-0.40;99.90
16732;DHT22;8484;50.904;9.192;2023-02-15T03:28:36;-0.50;99.90
16732;DHT22;8484;50.904;9.192;2023-02-15T03:31:06;-0.50;99.90
16732;DHT22;8484;50.904;9.192;2023-02-15T03:33:38;-0.60;99.90
16732;DHT22;8484;50.904;9.192;2023-02-15T03:36:11;-0.70;99.90
16732;DHT22;8484;50.904;9.192;2023-02-15T03:38:49;-0.50;99.90
16732;DHT22;8484;50.904;9.192;2023-02-15T03:41:18;-0.60;99.90
16732;DHT22;8484;50.904;9.192;2023-02-15T03:43:49;-0.80;99.90
16732;DHT22;8484;50.904;9.192;2023-02-15T03:46:22;-0.90;99.90
16732;DHT22;8484;50.904;9.192;2023-02-15T03:48:54;-0.90;99.90
16732;DHT22;8484;50.904;9.192;2023-02-15T03:51:26;-1.00;99.90
16732;DHT22;8484;50.904;9.192;2023-02-15T03:54:01;-1.10;99.90
16732;DHT22;8484;50.904;9.192;2023-02-15T03:56:28;-1.00;99.90
16732;DHT22;8484;50.904;9.192;2023-02-15T03:58:55;-0.90;99.90
16732;DHT22;8484;50.904;9.192;2023-02-15T04:01:42;-1.00;99.90
16732;DHT22;8484;50.904;9.192;2023-02-15T04:04:28;-0.90;99.90
16732;DHT22;8484;50.904;9.192;2023-02-15T04:06:57;-1.00;99.90
16732;DHT22;8484;50.904;9.192;2023-02-15T04:09:24;-1.00;99.90
16732;DHT22;8484;50.904;9.192;2023-02-15T04:12:08;-1.00;99.90
16732;DHT22;8484;50.904;9.192;2023-02-15T04:14:35;-1.10;99.90
16732;DHT22;8484;50.904;9.192;2023-02-15T04:17:19;-1.10;99.90
16732;DHT22;8484;50.904;9.192;2023-02-15T04:19:47;-1.00;99.90
16732;DHT22;8484;50.904;9.192;2023-02-15T04:22:32;-1.10;99.90
16732;DHT22;8484;50.904;9.192;2023-02-15T04:25:16;-1.20;99.90
16732;DHT22;8484;50.904;9.192;2023-02-15T04:27:45;-1.20;99.90
16732;DHT22;8484;50.904;9.192;2023-02-15T04:30:13;-1.20;99.90
16732;DHT22;8484;50.904;9.192;2023-02-15T04:32:41;-1.20;99.90
16732;DHT22;8484;50.904;9.192;2023-02-15T04:35:10;-1.20;99.90
16732;DHT22;8484;50.904;9.192;2023-02-15T04:37:37;-1.30;99.90
16732;DHT22;8484;50.904;9.192;2023-02-15T04:40:05;-1.20;99.90
16732;DHT22;8484;50.904;9.192;2023-02-15T04:42:33;-1.10;99.90
16732;DHT22;8484;50.904;9.192;2023-02-15T04:44:59;-1.20;99.90
16732;DHT22;8484;50.904;9.192;2023-02-15T04:47:26;-1.20;99.90
16732;DHT22;8484;50.904;9.192;2023-02-15T04:49:53;-1.00;99.90
16732;DHT22;8484;50.904;9.192;2023-02-15T04:52:21;-0.90;99.90
16732;DHT22;8484;50.904;9.192;2023-02-15T04:54:48;-0.70;99.90
16732;DHT22;8484;50.904;9.192;2023-02-15T04:57:15;-0.80;99.90
16732;DHT22;8484;50.904;9.192;2023-02-15T04:59:42;-0.80;99.90
16732;DHT22;8484;50.904;9.192;2023-02-15T05:02:08;-0.70;99.90
16732;DHT22;8484;50.904;9.192;2023-02-15T05:04:35;-0.70;99.90
16732;DHT22;8484;50.904;9.192;2023-02-15T05:07:02;-0.60;99.90
16732;DHT22;8484;50.904;9.192;2023-02-15T05:09:30;-0.80;99.90
16732;DHT22;8484;50.904;9.192;2023-02-15T05:11:57;-1.00;99.90
16732;DHT22;8484;50.904;9.192;2023-02-15T05:14:24;-0.90;99.90
16732;DHT22;8484;50.904;9.192;2023-02-15T05:16:51;-0.90;99.90
16732;DHT22;8484;50.904;9.192;2023-02-15T05:19:19;-0.80;99.90
16732;DHT22;8484;50.904;9.192;2023-02-15T05:21:46;-0.80;99.90
16732;DHT22;8484;50.904;9.192;2023-02-15T05:24:12;-0.60;99.90
16732;DHT22;8484;50.904;9.192;2023-02-15T05:26:55;-0.70;99.90
16732;DHT22;8484;50.904;9.192;2023-02-15T05:29:39;-0.80;99.90
16732;DHT22;8484;50.904;9.192;2023-02-15T05:32:06;-0.80;99.90
16732;DHT22;8484;50.904;9.192;2023-02-15T05:34:33;-0.90;99.90
16732;DHT22;8484;50.904;9.192;2023-02-15T05:37:00;-0.90;99.90
16732;DHT22;8484;50.904;9.192;2023-02-15T05:39:27;-0.90;99.90
16732;DHT22;8484;50.904;9.192;2023-02-15T05:41:58;-0.90;99.90
16732;DHT22;8484;50.904;9.192;2023-02-15T05:44:25;-0.90;99.90
16732;DHT22;8484;50.904;9.192;2023-02-15T05:46:52;-0.80;99.90
16732;DHT22;8484;50.904;9.192;2023-02-15T05:49:19;-0.80;99.90
16732;DHT22;8484;50.904;9.192;2023-02-15T05:51:45;-0.80;99.90
16732;DHT22;8484;50.904;9.192;2023-02-15T05:54:12;-0.70;99.90
16732;DHT22;8484;50.904;9.192;2023-02-15T05:56:39;-0.70;99.90
16732;DHT22;8484;50.904;9.192;2023-02-15T05:59:07;-0.80;99.90
16732;DHT22;8484;50.904;9.192;2023-02-15T06:01:34;-0.70;99.90
16732;DHT22;8484;50.904;9.192;2023-02-15T06:04:01;-0.90;99.90
16732;DHT22;8484;50.904;9.192;2023-02-15T06:06:28;-1.00;99.90
16732;DHT22;8484;50.904;9.192;2023-02-15T06:08:54;-1.20;99.90
16732;DHT22;8484;50.904;9.192;2023-02-15T06:11:21;-1.10;99.90
16732;DHT22;8484;50.904;9.192;2023-02-15T06:13:48;-1.00;99.90
16732;DHT22;8484;50.904;9.192;2023-02-15T06:16:16;-1.20;99.90
16732;DHT22;8484;50.904;9.192;2023-02-15T06:18:43;-1.10;99.90
16732;DHT22;8484;50.904;9.192;2023-02-15T06:21:10;-1.10;99.90
16732;DHT22;8484;50.904;9.192;2023-02-15T06:23:37;-1.20;99.90
16732;DHT22;8484;50.904;9.192;2023-02-15T06:26:04;-1.20;99.90
16732;DHT22;8484;50.904;9.192;2023-02-15T06:28:31;-1.10;99.90
16732;DHT22;8484;50.904;9.192;2023-02-15T06:30:58;-1.00;99.90
16732;DHT22;8484;50.904;9.192;2023-02-15T06:33:26;-1.10;99.90
16732;DHT22;8484;50.904;9.192;2023-02-15T06:35:53;-1.00;99.90
16732;DHT22;8484;50.904;9.192;2023-02-15T06:38:19;-1.00;99.90
16732;DHT22;8484;50.904;9.192;2023-02-15T06:40:46;-1.00;99.90
16732;DHT22;8484;50.904;9.192;2023-02-15T06:43:13;-1.00;99.90
16732;DHT22;8484;50.904;9.192;2023-02-15T06:45:41;-1.00;99.90
16732;DHT22;8484;50.904;9.192;2023-02-15T06:48:08;-1.00;99.90
16732;DHT22;8484;50.904;9.192;2023-02-15T06:50:38;-0.90;99.90
16732;DHT22;8484;50.904;9.192;2023-02-15T06:53:04;-1.10;99.90
16732;DHT22;8484;50.904;9.192;2023-02-15T06:55:31;-1.10;99.90
16732;DHT22;8484;50.904;9.192;2023-02-15T06:57:58;-1.10;99.90
16732;DHT22;8484;50.904;9.192;2023-02-15T07:00:25;-1.00;99.90
16732;DHT22;8484;50.904;9.192;2023-02-15T07:02:53;-1.00;99.90
16732;DHT22;8484;50.904;9.192;2023-02-15T07:05:21;-1.10;99.90
16732;DHT22;8484;50.904;9.192;2023-02-15T07:07:50;-1.10;99.90
16732;DHT22;8484;50.904;9.192;2023-02-15T07:10:18;-1.10;99.90
16732;DHT22;8484;50.904;9.192;2023-02-15T07:12:45;-1.00;99.90
16732;DHT22;8484;50.904;9.192;2023-02-15T07:15:13;-0.90;99.90
16732;DHT22;8484;50.904;9.192;2023-02-15T07:17:40;-1.10;99.90
16732;DHT22;8484;50.904;9.192;2023-02-15T07:20:09;-0.90;99.90
16732;DHT22;8484;50.904;9.192;2023-02-15T07:22:36;-0.80;99.90
16732;DHT22;8484;50.904;9.192;2023-02-15T07:25:06;-0.80;99.90
16732;DHT22;8484;50.904;9.192;2023-02-15T07:27:34;-0.70;99.90
16732;DHT22;8484;50.904;9.192;2023-02-15T07:30:01;-0.70;99.90
16732;DHT22;8484;50.904;9.192;2023-02-15T07:32:29;-0.50;99.90
16732;DHT22;8484;50.904;9.192;2023-02-15T07:34:57;-0.30;99.90
16732;DHT22;8484;50.904;9.192;2023-02-15T07:37:24;-0.20;99.90
16732;DHT22;8484;50.904;9.192;2023-02-15T07:39:51;-0.20;99.90
16732;DHT22;8484;50.904;9.192;2023-02-15T07:42:19;-0.20;99.90
16732;DHT22;8484;50.904;9.192;2023-02-15T07:44:47;-0.10;99.90
16732;DHT22;8484;50.904;9.192;2023-02-15T07:47:14;-0.20;99.90
16732;DHT22;8484;50.904;9.192;2023-02-15T07:49:41;-0.20;99.90
16732;DHT22;8484;50.904;9.192;2023-02-15T07:52:08;-0.30;99.90
16732;DHT22;8484;50.904;9.192;2023-02-15T07:54:35;-0.30;99.90
16732;DHT22;8484;50.904;9.192;2023-02-15T07:57:02;-0.30;99.90
16732;DHT22;8484;50.904;9.192;2023-02-15T07:59:30;-0.30;99.90
16732;DHT22;8484;50.904;9.192;2023-02-15T08:01:58;-0.20;99.90
16732;DHT22;8484;50.904;9.192;2023-02-15T08:04:24;-0.10;99.90
16732;DHT22;8484;50.904;9.192;2023-02-15T08:06:52;-0.10;99.90
16732;DHT22;8484;50.904;9.192;2023-02-15T08:09:20;-0.20;99.90
16732;DHT22;8484;50.904;9.192;2023-02-15T08:11:47;-0.20;99.90
16732;DHT22;8484;50.904;9.192;2023-02-15T08:14:16;-0.20;99.90
16732;DHT22;8484;50.904;9.192;2023-02-15T08:16:45;-0.20;99.90
16732;DHT22;8484;50.904;9.192;2023-02-15T08:19:15;0.00;99.90
16732;DHT22;8484;50.904;9.192;2023-02-15T08:21:43;0.00;99.90
16732;DHT22;8484;50.904;9.192;2023-02-15T08:24:12;0.00;99.90
16732;DHT22;8484;50.904;9.192;2023-02-15T08:26:40;0.00;99.90
16732;DHT22;8484;50.904;9.192;2023-02-15T08:29:07;-0.10;99.90
16732;DHT22;8484;50.904;9.192;2023-02-15T08:31:34;-0.10;99.90
16732;DHT22;8484;50.904;9.192;2023-02-15T08:34:04;0.00;99.90
16732;DHT22;8484;50.904;9.192;2023-02-15T08:36:32;-0.10;99.90
16732;DHT22;8484;50.904;9.192;2023-02-15T08:39:01;0.00;99.90
16732;DHT22;8484;50.904;9.192;2023-02-15T08:41:29;0.10;99.90
16732;DHT22;8484;50.904;9.192;2023-02-15T08:43:58;0.00;99.90
16732;DHT22;8484;50.904;9.192;2023-02-15T08:46:26;0.00;99.90
16732;DHT22;8484;50.904;9.192;2023-02-15T08:48:54;-0.10;99.90
16732;DHT22;8484;50.904;9.192;2023-02-15T08:51:23;-0.20;99.90
16732;DHT22;8484;50.904;9.192;2023-02-15T08:53:53;-0.10;99.90
16732;DHT22;8484;50.904;9.192;2023-02-15T08:56:21;-0.20;99.90
16732;DHT22;8484;50.904;9.192;2023-02-15T08:58:49;-0.10;99.90
16732;DHT22;8484;50.904;9.192;2023-02-15T09:01:17;0.00;99.90
16732;DHT22;8484;50.904;9.192;2023-02-15T09:03:46;0.00;99.90
16732;DHT22;8484;50.904;9.192;2023-02-15T09:06:13;0.00;99.90
16732;DHT22;8484;50.904;9.192;2023-02-15T09:08:42;0.10;99.90
16732;DHT22;8484;50.904;9.192;2023-02-15T09:11:10;0.00;99.90
16732;DHT22;8484;50.904;9.192;2023-02-15T09:13:38;0.10;99.90
16732;DHT22;8484;50.904;9.192;2023-02-15T09:16:07;0.00;99.90
16732;DHT22;8484;50.904;9.192;2023-02-15T09:18:37;0.10;99.90
16732;DHT22;8484;50.904;9.192;2023-02-15T09:21:05;0.00;99.90
16732;DHT22;8484;50.904;9.192;2023-02-15T09:23:33;0.30;99.90
16732;DHT22;8484;50.904;9.192;2023-02-15T09:26:05;0.30;99.90
16732;DHT22;8484;50.904;9.192;2023-02-15T09:28:32;0.20;99.90
16732;DHT22;8484;50.904;9.192;2023-02-15T09:31:08;0.10;99.90
16732;DHT22;8484;50.904;9.192;2023-02-15T09:33:36;0.10;99.90
16732;DHT22;8484;50.904;9.192;2023-02-15T09:36:04;0.10;99.90
16732;DHT22;8484;50.904;9.192;2023-02-15T09:38:31;0.10;99.90
16732;DHT22;8484;50.904;9.192;2023-02-15T09:41:09;0.20;99.90
16732;DHT22;8484;50.904;9.192;2023-02-15T09:43:48;0.20;99.90
16732;DHT22;8484;50.904;9.192;2023-02-15T09:46:27;0.40;99.90
16732;DHT22;8484;50.904;9.192;2023-02-15T09:48:59;0.40;99.90
16732;DHT22;8484;50.904;9.192;2023-02-15T09:51:46;0.40;99.90
16732;DHT22;8484;50.904;9.192;2023-02-15T09:54:25;0.30;99.90
16732;DHT22;8484;50.904;9.192;2023-02-15T09:57:00;0.50;99.90
16732;DHT22;8484;50.904;9.192;2023-02-15T09:59:39;0.50;99.90
16732;DHT22;8484;50.904;9.192;2023-02-15T10:02:21;0.50;99.90
16732;DHT22;8484;50.904;9.192;2023-02-15T10:04:58;0.50;99.90
16732;DHT22;8484;50.904;9.192;2023-02-15T10:07:39;0.30;99.90
16732;DHT22;8484;50.904;9.192;2023-02-15T10:10:14;0.30;99.90
16732;DHT22;8484;50.904;9.192;2023-02-15T10:12:59;0.40;99.90
16732;DHT22;8484;50.904;9.192;2023-02-15T10:15:40;0.60;99.90
16732;DHT22;8484;50.904;9.192;2023-02-15T10:18:22;0.50;99.90
16732;DHT22;8484;50.904;9.192;2023-02-15T10:20:56;0.70;99.90
16732;DHT22;8484;50.904;9.192;2023-02-15T10:23:39;0.60;99.90
16732;DHT22;8484;50.904;9.192;2023-02-15T10:26:13;0.60;99.90
16732;DHT22;8484;50.904;9.192;2023-02-15T10:28:46;0.60;99.90
16732;DHT22;8484;50.904;9.192;2023-02-15T10:31:22;0.70;99.90
16732;DHT22;8484;50.904;9.192;2023-02-15T10:33:58;0.70;99.90
16732;DHT22;8484;50.904;9.192;2023-02-15T10:36:44;0.80;99.90
16732;DHT22;8484;50.904;9.192;2023-02-15T10:39:23;0.80;99.90
16732;DHT22;8484;50.904;9.192;2023-02-15T10:41:56;0.80;99.90
16732;DHT22;8484;50.904;9.192;2023-02-15T10:44:40;0.60;99.90
16732;DHT22;8484;50.904;9.192;2023-02-15T10:47:26;0.60;99.90
16732;DHT22;8484;50.904;9.192;2023-02-15T10:53:01;1.00;99.90
16732;DHT22;8484;50.904;9.192;2023-02-15T10:55:40;1.00;99.90
16732;DHT22;8484;50.904;9.192;2023-02-15T10:58:15;1.00;99.90
16732;DHT22;8484;50.904;9.192;2023-02-15T11:00:48;0.80;99.90
16732;DHT22;8484;50.904;9.192;2023-02-15T11:03:28;0.70;99.90
16732;DHT22;8484;50.904;9.192;2023-02-15T11:06:02;0.70;99.90
16732;DHT22;8484;50.904;9.192;2023-02-15T11:08:34;0.90;99.90
16732;DHT22;8484;50.904;9.192;2023-02-15T11:11:05;1.00;99.90
16732;DHT22;8484;50.904;9.192;2023-02-15T11:13:34;1.20;99.90
16732;DHT22;8484;50.904;9.192;2023-02-15T11:16:05;1.00;99.90
16732;DHT22;8484;50.904;9.192;2023-02-15T11:18:35;1.10;99.90
16732;DHT22;8484;50.904;9.192;2023-02-15T11:21:06;1.10;99.90
16732;DHT22;8484;50.904;9.192;2023-02-15T11:23:37;1.20;99.90
16732;DHT22;8484;50.904;9.192;2023-02-15T11:26:14;1.20;99.90
16732;DHT22;8484;50.904;9.192;2023-02-15T11:28:46;1.20;99.90
16732;DHT22;8484;50.904;9.192;2023-02-15T11:31:17;1.20;99.90
16732;DHT22;8484;50.904;9.192;2023-02-15T11:33:47;1.20;99.90
16732;DHT22;8484;50.904;9.192;2023-02-15T11:36:19;1.10;99.90
16732;DHT22;8484;50.904;9.192;2023-02-15T11:38:50;1.20;99.90
16732;DHT22;8484;50.904;9.192;2023-02-15T11:41:22;1.40;99.90
16732;DHT22;8484;50.904;9.192;2023-02-15T11:43:56;1.30;99.90
16732;DHT22;8484;50.904;9.192;2023-02-15T11:46:24;1.50;99.90
16732;DHT22;8484;50.904;9.192;2023-02-15T11:48:51;1.50;99.90
16732;DHT22;8484;50.904;9.192;2023-02-15T11:51:21;1.40;99.90
16732;DHT22;8484;50.904;9.192;2023-02-15T11:53:49;1.40;99.90
16732;DHT22;8484;50.904;9.192;2023-02-15T11:56:18;1.30;99.90
16732;DHT22;8484;50.904;9.192;2023-02-15T11:58:51;1.30;99.90
16732;DHT22;8484;50.904;9.192;2023-02-15T12:01:24;1.40;99.90
16732;DHT22;8484;50.904;9.192;2023-02-15T12:03:55;1.30;99.90
16732;DHT22;8484;50.904;9.192;2023-02-15T12:06:27;1.30;99.90
16732;DHT22;8484;50.904;9.192;2023-02-15T12:09:01;1.30;99.90
16732;DHT22;8484;50.904;9.192;2023-02-15T12:11:34;1.70;99.90
16732;DHT22;8484;50.904;9.192;2023-02-15T12:14:03;1.60;99.90
16732;DHT22;8484;50.904;9.192;2023-02-15T12:16:40;1.70;99.90
16732;DHT22;8484;50.904;9.192;2023-02-15T12:19:21;1.70;99.90
16732;DHT22;8484;50.904;9.192;2023-02-15T12:21:52;1.50;99.90
16732;DHT22;8484;50.904;9.192;2023-02-15T12:24:22;1.60;99.90
16732;DHT22;8484;50.904;9.192;2023-02-15T12:27:01;1.60;99.90
16732;DHT22;8484;50.904;9.192;2023-02-15T12:29:33;1.60;99.90
16732;DHT22;8484;50.904;9.192;2023-02-15T12:32:03;1.90;99.90
16732;DHT22;8484;50.904;9.192;2023-02-15T12:34:32;2.00;99.90
16732;DHT22;8484;50.904;9.192;2023-02-15T12:37:02;2.00;99.90
16732;DHT22;8484;50.904;9.192;2023-02-15T12:39:34;1.90;99.90
16732;DHT22;8484;50.904;9.192;2023-02-15T12:42:04;1.90;99.90
16732;DHT22;8484;50.904;9.192;2023-02-15T12:44:32;1.80;99.90
16732;DHT22;8484;50.904;9.192;2023-02-15T12:47:02;2.00;99.90
16732;DHT22;8484;50.904;9.192;2023-02-15T12:49:31;2.20;99.90
16732;DHT22;8484;50.904;9.192;2023-02-15T12:51:59;2.00;99.90
16732;DHT22;8484;50.904;9.192;2023-02-15T12:54:32;1.90;99.90
16732;DHT22;8484;50.904;9.192;2023-02-15T12:57:13;1.90;99.90
16732;DHT22;8484;50.904;9.192;2023-02-15T12:59:48;2.10;99.90
16732;DHT22;8484;50.904;9.192;2023-02-15T13:02:22;1.90;99.90
16732;DHT22;8484;50.904;9.192;2023-02-15T13:04:50;2.30;99.90
16732;DHT22;8484;50.904;9.192;2023-02-15T13:07:17;2.20;99.90
16732;DHT22;8484;50.904;9.192;2023-02-15T13:09:46;2.10;99.90
16732;DHT22;8484;50.904;9.192;2023-02-15T13:12:18;2.20;99.90
16732;DHT22;8484;50.904;9.192;2023-02-15T13:14:48;1.90;99.90
16732;DHT22;8484;50.904;9.192;2023-02-15T13:17:21;2.00;99.90
16732;DHT22;8484;50.904;9.192;2023-02-15T13:19:52;2.20;99.90
16732;DHT22;8484;50.904;9.192;2023-02-15T13:22:22;2.10;99.90
16732;DHT22;8484;50.904;9.192;2023-02-15T13:24:53;2.00;99.90
16732;DHT22;8484;50.904;9.192;2023-02-15T13:30:03;1.90;99.90
16732;DHT22;8484;50.904;9.192;2023-02-15T13:32:38;1.90;99.90
16732;DHT22;8484;50.904;9.192;2023-02-15T13:35:14;2.00;99.90
16732;DHT22;8484;50.904;9.192;2023-02-15T13:37:51;2.00;99.90
16732;DHT22;8484;50.904;9.192;2023-02-15T13:40:24;2.10;99.90
16732;DHT22;8484;50.904;9.192;2023-02-15T13:42:55;2.10;99.90
16732;DHT22;8484;50.904;9.192;2023-02-15T13:45:31;2.00;99.90
16732;DHT22;8484;50.904;9.192;2023-02-15T13:48:08;2.20;99.90
16732;DHT22;8484;50.904;9.192;2023-02-15T13:50:50;2.30;99.90
16732;DHT22;8484;50.904;9.192;2023-02-15T13:53:32;2.30;99.90
16732;DHT22;8484;50.904;9.192;2023-02-15T13:56:02;2.20;99.90
16732;DHT22;8484;50.904;9.192;2023-02-15T13:58:50;2.20;99.90
16732;DHT22;8484;50.904;9.192;2023-02-15T14:01:28;2.20;99.90
16732;DHT22;8484;50.904;9.192;2023-02-15T14:04:17;2.10;99.90
16732;DHT22;8484;50.904;9.192;2023-02-15T14:07:02;2.10;99.90
16732;DHT22;8484;50.904;9.192;2023-02-15T14:09:43;2.20;99.90
16732;DHT22;8484;50.904;9.192;2023-02-15T14:12:34;2.10;99.90
16732;DHT22;8484;50.904;9.192;2023-02-15T14:15:10;2.20;99.90
16732;DHT22;8484;50.904;9.192;2023-02-15T14:17:47;2.20;99.90
16732;DHT22;8484;50.904;9.192;2023-02-15T14:20:22;2.20;99.90
16732;DHT22;8484;50.904;9.192;2023-02-15T14:22:57;2.10;99.90
16732;DHT22;8484;50.904;9.192;2023-02-15T14:25:36;2.20;99.90
16732;DHT22;8484;50.904;9.192;2023-02-15T14:28:10;2.20;99.90
16732;DHT22;8484;50.904;9.192;2023-02-15T14:30:40;2.30;99.90
16732;DHT22;8484;50.904;9.192;2023-02-15T14:33:29;2.30;99.90
16732;DHT22;8484;50.904;9.192;2023-02-15T14:35:58;2.20;99.90
16732;DHT22;8484;50.904;9.192;2023-02-15T14:38:46;2.20;99.90
16732;DHT22;8484;50.904;9.192;2023-02-15T14:41:18;2.00;99.90
16732;DHT22;8484;50.904;9.192;2023-02-15T14:43:51;2.20;99.90
16732;DHT22;8484;50.904;9.192;2023-02-15T14:46:25;2.10;99.90
16732;DHT22;8484;50.904;9.192;2023-02-15T14:48:55;2.10;99.90
16732;DHT22;8484;50.904;9.192;2023-02-15T14:51:56;2.10;99.90
16732;DHT22;8484;50.904;9.192;2023-02-15T14:54:56;2.10;99.90
16732;DHT22;8484;50.904;9.192;2023-02-15T14:57:28;2.20;99.90
16732;DHT22;8484;50.904;9.192;2023-02-15T14:59:58;2.10;99.90
16732;DHT22;8484;50.904;9.192;2023-02-15T15:02:29;2.10;99.90
16732;DHT22;8484;50.904;9.192;2023-02-15T15:05:00;2.40;99.90
16732;DHT22;8484;50.904;9.192;2023-02-15T15:07:37;2.10;99.90
16732;DHT22;8484;50.904;9.192;2023-02-15T15:10:07;2.10;99.90
16732;DHT22;8484;50.904;9.192;2023-02-15T15:12:41;2.10;99.90
16732;DHT22;8484;50.904;9.192;2023-02-15T15:15:13;2.10;99.90
16732;DHT22;8484;50.904;9.192;2023-02-15T15:17:58;2.00;99.90
16732;DHT22;8484;50.904;9.192;2023-02-15T15:20:46;2.00;99.90
16732;DHT22;8484;50.904;9.192;2023-02-15T15:26:24;1.90;99.90
16732;DHT22;8484;50.904;9.192;2023-02-15T15:28:57;2.00;99.90
16732;DHT22;8484;50.904;9.192;2023-02-15T15:31:36;2.00;99.90
16732;DHT22;8484;50.904;9.192;2023-02-15T15:34:38;2.00;99.90
16732;DHT22;8484;50.904;9.192;2023-02-15T15:37:50;2.10;99.90
16732;DHT22;8484;50.904;9.192;2023-02-15T15:46:50;2.00;99.90
16732;DHT22;8484;50.904;9.192;2023-02-15T15:49:21;1.90;99.90
16732;DHT22;8484;50.904;9.192;2023-02-15T15:51:50;1.90;99.90
16732;DHT22;8484;50.904;9.192;2023-02-15T15:54:20;2.00;99.90
16732;DHT22;8484;50.904;9.192;2023-02-15T15:56:50;1.90;99.90
16732;DHT22;8484;50.904;9.192;2023-02-15T15:59:21;2.00;99.90
16732;DHT22;8484;50.904;9.192;2023-02-15T16:01:48;2.10;99.90
16732;DHT22;8484;50.904;9.192;2023-02-15T16:04:23;2.10;99.90
16732;DHT22;8484;50.904;9.192;2023-02-15T16:06:50;2.10;99.90
16732;DHT22;8484;50.904;9.192;2023-02-15T16:09:20;2.00;99.90
16732;DHT22;8484;50.904;9.192;2023-02-15T16:11:48;2.00;99.90
16732;DHT22;8484;50.904;9.192;2023-02-15T16:14:23;1.90;99.90
16732;DHT22;8484;50.904;9.192;2023-02-15T16:16:54;1.90;99.90
16732;DHT22;8484;50.904;9.192;2023-02-15T16:19:25;1.90;99.90
16732;DHT22;8484;50.904;9.192;2023-02-15T16:21:53;1.90;99.90
16732;DHT22;8484;50.904;9.192;2023-02-15T16:24:40;2.00;99.90
16732;DHT22;8484;50.904;9.192;2023-02-15T16:27:18;2.00;99.90
16732;DHT22;8484;50.904;9.192;2023-02-15T16:29:49;1.90;99.90
16732;DHT22;8484;50.904;9.192;2023-02-15T16:32:20;1.90;99.90
16732;DHT22;8484;50.904;9.192;2023-02-15T16:34:52;1.90;99.90
16732;DHT22;8484;50.904;9.192;2023-02-15T16:37:20;1.80;99.90
16732;DHT22;8484;50.904;9.192;2023-02-15T16:39:49;1.80;99.90